Current Conditions
Clear
Conditions



Pressure
1017.32 (mb) - 30.04 (inHG)
Visibility

6.2 (miles) - 10.0 (km)
Temperature
12  °C
Temperature
-1  °C
Dewpoint
41  %
 Humidity
Wind Speed
10  mph
9  kts
16  km/h
4.5  m/s
Wind Direction
N
45°
E
90°
135°
S
180°
225°
W
270°
315°
 360°

Due North
Airport Data
EGUL
RAF Lakenheath
Metar :EGUL 212156Z AUTO 36009KT 9999 CLR 12/M01 A3004 RMK AO2 SLP176 T01201009 $
Mon 21st June 22:56 pm
Raw Metar Info
Raw METAR is the most common format in the world for the transmission of observational weather data. It is highly standardized through the International Civil Aviation Organization (ICAO), which allows it to be understood throughout most of the world.
API Info
Data Provided by
https://www.checkwx.com/weather/EGUL

Aviation Weather providing METAR, TAF, AIRMET, SIGMET and OUTLOOK Weather Reports
© Info
CSS/SVG/PHP scripts were developed by weather34.com for use in the weather34 template © 2015-2021

Guide Info provided by Metar-Wikipedia